sensor_id;sensor_type;location;lat;lon;timestamp;P1;durP1;ratioP1;P2;durP2;ratioP2
15404;SDS011;7801;48.124;11.590;2023-02-15T00:01:15;2.70;;;2.50;;
15404;SDS011;7801;48.124;11.590;2023-02-15T00:03:41;3.60;;;3.40;;
15404;SDS011;7801;48.124;11.590;2023-02-15T00:06:06;2.53;;;2.10;;
15404;SDS011;7801;48.124;11.590;2023-02-15T00:08:32;2.50;;;2.30;;
15404;SDS011;7801;48.124;11.590;2023-02-15T00:11:30;4.43;;;2.77;;
15404;SDS011;7801;48.124;11.590;2023-02-15T00:14:27;2.77;;;2.57;;
15404;SDS011;7801;48.124;11.590;2023-02-15T00:16:52;3.60;;;3.40;;
15404;SDS011;7801;48.124;11.590;2023-02-15T00:19:20;3.10;;;2.90;;
15404;SDS011;7801;48.124;11.590;2023-02-15T00:21:46;2.13;;;2.03;;
15404;SDS011;7801;48.124;11.590;2023-02-15T00:24:14;2.00;;;1.93;;
15404;SDS011;7801;48.124;11.590;2023-02-15T00:26:41;19.00;;;2.60;;
15404;SDS011;7801;48.124;11.590;2023-02-15T00:29:08;1.52;;;1.52;;
15404;SDS011;7801;48.124;11.590;2023-02-15T00:34:42;3.70;;;2.37;;
15404;SDS011;7801;48.124;11.590;2023-02-15T00:37:08;2.57;;;2.37;;
15404;SDS011;7801;48.124;11.590;2023-02-15T00:39:33;2.80;;;2.63;;
15404;SDS011;7801;48.124;11.590;2023-02-15T00:41:59;2.93;;;2.73;;
15404;SDS011;7801;48.124;11.590;2023-02-15T00:44:24;2.50;;;2.30;;
15404;SDS011;7801;48.124;11.590;2023-02-15T00:46:49;2.93;;;2.73;;
15404;SDS011;7801;48.124;11.590;2023-02-15T00:49:15;3.10;;;3.00;;
15404;SDS011;7801;48.124;11.590;2023-02-15T00:51:40;2.80;;;2.67;;
15404;SDS011;7801;48.124;11.590;2023-02-15T00:54:05;2.70;;;2.57;;
15404;SDS011;7801;48.124;11.590;2023-02-15T00:56:31;3.17;;;2.97;;
15404;SDS011;7801;48.124;11.590;2023-02-15T00:58:56;2.87;;;2.77;;
15404;SDS011;7801;48.124;11.590;2023-02-15T01:01:22;3.60;;;3.27;;
15404;SDS011;7801;48.124;11.590;2023-02-15T01:03:48;2.37;;;2.27;;
15404;SDS011;7801;48.124;11.590;2023-02-15T01:06:14;2.23;;;2.13;;
15404;SDS011;7801;48.124;11.590;2023-02-15T01:08:41;1.92;;;1.90;;
15404;SDS011;7801;48.124;11.590;2023-02-15T01:11:11;2.78;;;1.95;;
15404;SDS011;7801;48.124;11.590;2023-02-15T01:13:38;2.07;;;2.03;;
15404;SDS011;7801;48.124;11.590;2023-02-15T01:16:05;2.12;;;2.03;;
15404;SDS011;7801;48.124;11.590;2023-02-15T01:18:33;2.17;;;2.07;;
15404;SDS011;7801;48.124;11.590;2023-02-15T01:20:59;1.83;;;1.73;;
15404;SDS011;7801;48.124;11.590;2023-02-15T01:23:24;2.10;;;2.10;;
15404;SDS011;7801;48.124;11.590;2023-02-15T01:25:49;3.57;;;3.23;;
15404;SDS011;7801;48.124;11.590;2023-02-15T01:28:15;1.47;;;1.47;;
15404;SDS011;7801;48.124;11.590;2023-02-15T01:30:40;1.30;;;1.30;;
15404;SDS011;7801;48.124;11.590;2023-02-15T01:33:06;1.47;;;1.47;;
15404;SDS011;7801;48.124;11.590;2023-02-15T01:35:31;1.73;;;1.63;;
15404;SDS011;7801;48.124;11.590;2023-02-15T01:37:57;1.07;;;1.07;;
15404;SDS011;7801;48.124;11.590;2023-02-15T01:40:23;1.73;;;1.63;;
15404;SDS011;7801;48.124;11.590;2023-02-15T01:42:50;1.65;;;1.65;;
15404;SDS011;7801;48.124;11.590;2023-02-15T01:45:19;1.10;;;1.10;;
15404;SDS011;7801;48.124;11.590;2023-02-15T01:50:19;2.35;;;2.25;;
15404;SDS011;7801;48.124;11.590;2023-02-15T01:52:51;1.75;;;1.65;;
15404;SDS011;7801;48.124;11.590;2023-02-15T01:55:32;3.20;;;3.10;;
15404;SDS011;7801;48.124;11.590;2023-02-15T01:58:01;2.42;;;2.22;;
15404;SDS011;7801;48.124;11.590;2023-02-15T02:00:27;2.23;;;2.13;;
15404;SDS011;7801;48.124;11.590;2023-02-15T02:02:53;1.98;;;1.87;;
15404;SDS011;7801;48.124;11.590;2023-02-15T02:05:21;1.65;;;1.55;;
15404;SDS011;7801;48.124;11.590;2023-02-15T02:07:46;1.43;;;1.43;;
15404;SDS011;7801;48.124;11.590;2023-02-15T02:10:16;1.35;;;1.33;;
15404;SDS011;7801;48.124;11.590;2023-02-15T02:12:44;2.28;;;1.90;;
15404;SDS011;7801;48.124;11.590;2023-02-15T02:15:12;1.60;;;1.58;;
15404;SDS011;7801;48.124;11.590;2023-02-15T02:18:01;2.25;;;2.15;;
15404;SDS011;7801;48.124;11.590;2023-02-15T02:35:19;1.30;;;1.30;;
15404;SDS011;7801;48.124;11.590;2023-02-15T02:38:08;1.85;;;1.75;;
15404;SDS011;7801;48.124;11.590;2023-02-15T02:43:33;2.47;;;2.37;;
15404;SDS011;7801;48.124;11.590;2023-02-15T02:46:06;1.67;;;1.67;;
15404;SDS011;7801;48.124;11.590;2023-02-15T02:48:39;1.77;;;1.67;;
15404;SDS011;7801;48.124;11.590;2023-02-15T02:51:04;1.63;;;1.53;;
15404;SDS011;7801;48.124;11.590;2023-02-15T02:53:30;1.93;;;1.83;;
15404;SDS011;7801;48.124;11.590;2023-02-15T02:55:59;2.70;;;2.58;;
15404;SDS011;7801;48.124;11.590;2023-02-15T03:01:03;1.90;;;1.80;;
15404;SDS011;7801;48.124;11.590;2023-02-15T03:03:47;1.50;;;1.50;;
15404;SDS011;7801;48.124;11.590;2023-02-15T03:06:17;2.80;;;2.70;;
15404;SDS011;7801;48.124;11.590;2023-02-15T03:08:50;2.22;;;2.12;;
15404;SDS011;7801;48.124;11.590;2023-02-15T03:11:19;6.12;;;2.08;;
15404;SDS011;7801;48.124;11.590;2023-02-15T03:13:45;2.40;;;2.30;;
15404;SDS011;7801;48.124;11.590;2023-02-15T03:16:13;2.72;;;2.55;;
15404;SDS011;7801;48.124;11.590;2023-02-15T03:18:52;1.12;;;1.12;;
15404;SDS011;7801;48.124;11.590;2023-02-15T03:21:41;1.85;;;1.75;;
15404;SDS011;7801;48.124;11.590;2023-02-15T03:24:15;1.42;;;1.42;;
15404;SDS011;7801;48.124;11.590;2023-02-15T03:26:45;2.00;;;1.75;;
15404;SDS011;7801;48.124;11.590;2023-02-15T03:29:14;1.90;;;1.80;;
15404;SDS011;7801;48.124;11.590;2023-02-15T03:31:42;2.20;;;2.00;;
15404;SDS011;7801;48.124;11.590;2023-02-15T03:34:11;1.00;;;1.00;;
15404;SDS011;7801;48.124;11.590;2023-02-15T03:39:19;2.67;;;2.50;;
15404;SDS011;7801;48.124;11.590;2023-02-15T03:41:51;2.05;;;1.95;;
15404;SDS011;7801;48.124;11.590;2023-02-15T03:44:23;2.40;;;2.22;;
15404;SDS011;7801;48.124;11.590;2023-02-15T03:46:58;1.42;;;1.42;;
15404;SDS011;7801;48.124;11.590;2023-02-15T03:52:00;1.50;;;1.40;;
15404;SDS011;7801;48.124;11.590;2023-02-15T03:54:30;2.53;;;2.42;;
15404;SDS011;7801;48.124;11.590;2023-02-15T03:57:09;1.37;;;1.15;;
15404;SDS011;7801;48.124;11.590;2023-02-15T03:59:55;2.35;;;2.25;;
15404;SDS011;7801;48.124;11.590;2023-02-15T04:02:45;1.42;;;1.42;;
15404;SDS011;7801;48.124;11.590;2023-02-15T04:05:19;1.50;;;1.50;;
15404;SDS011;7801;48.124;11.590;2023-02-15T04:07:44;1.50;;;1.40;;
15404;SDS011;7801;48.124;11.590;2023-02-15T04:10:09;3.33;;;2.33;;
15404;SDS011;7801;48.124;11.590;2023-02-15T04:12:54;2.15;;;1.95;;
15404;SDS011;7801;48.124;11.590;2023-02-15T04:15:19;2.90;;;2.80;;
15404;SDS011;7801;48.124;11.590;2023-02-15T04:18:03;2.00;;;1.98;;
15404;SDS011;7801;48.124;11.590;2023-02-15T04:20:28;1.30;;;1.30;;
15404;SDS011;7801;48.124;11.590;2023-02-15T04:23:12;1.80;;;1.75;;
15404;SDS011;7801;48.124;11.590;2023-02-15T04:25:56;1.85;;;1.75;;
15404;SDS011;7801;48.124;11.590;2023-02-15T04:28:21;2.50;;;2.40;;
15404;SDS011;7801;48.124;11.590;2023-02-15T04:30:46;2.73;;;1.87;;
15404;SDS011;7801;48.124;11.590;2023-02-15T04:33:12;3.03;;;2.83;;
15404;SDS011;7801;48.124;11.590;2023-02-15T04:35:37;1.23;;;1.23;;
15404;SDS011;7801;48.124;11.590;2023-02-15T04:38:02;2.07;;;1.97;;
15404;SDS011;7801;48.124;11.590;2023-02-15T04:40:28;1.57;;;1.57;;
15404;SDS011;7801;48.124;11.590;2023-02-15T04:42:53;1.13;;;1.07;;
15404;SDS011;7801;48.124;11.590;2023-02-15T04:45:18;2.97;;;2.03;;
15404;SDS011;7801;48.124;11.590;2023-02-15T04:47:44;2.73;;;2.60;;
15404;SDS011;7801;48.124;11.590;2023-02-15T04:50:09;1.53;;;1.43;;
15404;SDS011;7801;48.124;11.590;2023-02-15T04:52:35;2.43;;;2.33;;
15404;SDS011;7801;48.124;11.590;2023-02-15T04:55:01;2.77;;;2.60;;
15404;SDS011;7801;48.124;11.590;2023-02-15T04:57:26;3.23;;;3.13;;
15404;SDS011;7801;48.124;11.590;2023-02-15T04:59:52;1.37;;;1.37;;
15404;SDS011;7801;48.124;11.590;2023-02-15T05:02:17;2.37;;;2.27;;
15404;SDS011;7801;48.124;11.590;2023-02-15T05:04:42;2.07;;;1.97;;
15404;SDS011;7801;48.124;11.590;2023-02-15T05:07:08;3.10;;;2.90;;
15404;SDS011;7801;48.124;11.590;2023-02-15T05:09:33;2.40;;;2.30;;
15404;SDS011;7801;48.124;11.590;2023-02-15T05:11:58;2.63;;;2.40;;
15404;SDS011;7801;48.124;11.590;2023-02-15T05:14:24;14.33;;;2.10;;
15404;SDS011;7801;48.124;11.590;2023-02-15T05:16:50;1.35;;;1.17;;
15404;SDS011;7801;48.124;11.590;2023-02-15T05:19:15;1.60;;;1.50;;
15404;SDS011;7801;48.124;11.590;2023-02-15T05:21:41;1.90;;;1.80;;
15404;SDS011;7801;48.124;11.590;2023-02-15T05:24:06;2.70;;;2.60;;
15404;SDS011;7801;48.124;11.590;2023-02-15T05:26:51;1.60;;;1.60;;
15404;SDS011;7801;48.124;11.590;2023-02-15T05:29:35;1.73;;;1.73;;
15404;SDS011;7801;48.124;11.590;2023-02-15T05:32:01;2.87;;;2.67;;
15404;SDS011;7801;48.124;11.590;2023-02-15T05:34:27;1.52;;;1.52;;
15404;SDS011;7801;48.124;11.590;2023-02-15T05:36:52;2.57;;;2.37;;
15404;SDS011;7801;48.124;11.590;2023-02-15T05:39:17;2.47;;;2.37;;
15404;SDS011;7801;48.124;11.590;2023-02-15T05:41:43;3.37;;;3.07;;
15404;SDS011;7801;48.124;11.590;2023-02-15T05:44:08;2.03;;;1.93;;
15404;SDS011;7801;48.124;11.590;2023-02-15T05:46:33;2.47;;;2.27;;
15404;SDS011;7801;48.124;11.590;2023-02-15T05:48:59;1.60;;;1.60;;
15404;SDS011;7801;48.124;11.590;2023-02-15T05:51:24;2.13;;;1.87;;
15404;SDS011;7801;48.124;11.590;2023-02-15T05:53:49;1.07;;;1.07;;
15404;SDS011;7801;48.124;11.590;2023-02-15T05:56:14;2.37;;;2.27;;
15404;SDS011;7801;48.124;11.590;2023-02-15T05:58:41;2.00;;;1.90;;
15404;SDS011;7801;48.124;11.590;2023-02-15T06:01:10;1.98;;;1.87;;
15404;SDS011;7801;48.124;11.590;2023-02-15T06:03:37;3.10;;;2.90;;
15404;SDS011;7801;48.124;11.590;2023-02-15T06:06:03;2.87;;;2.67;;
15404;SDS011;7801;48.124;11.590;2023-02-15T06:08:29;2.90;;;2.75;;
15404;SDS011;7801;48.124;11.590;2023-02-15T06:10:56;1.73;;;1.62;;
15404;SDS011;7801;48.124;11.590;2023-02-15T06:13:21;3.37;;;3.27;;
15404;SDS011;7801;48.124;11.590;2023-02-15T06:15:47;1.80;;;1.80;;
15404;SDS011;7801;48.124;11.590;2023-02-15T06:18:12;1.90;;;1.80;;
15404;SDS011;7801;48.124;11.590;2023-02-15T06:20:37;1.93;;;1.83;;
15404;SDS011;7801;48.124;11.590;2023-02-15T06:23:03;3.03;;;2.93;;
15404;SDS011;7801;48.124;11.590;2023-02-15T06:25:28;3.17;;;2.97;;
15404;SDS011;7801;48.124;11.590;2023-02-15T06:27:54;1.80;;;1.73;;
15404;SDS011;7801;48.124;11.590;2023-02-15T06:30:19;2.53;;;2.43;;
15404;SDS011;7801;48.124;11.590;2023-02-15T06:32:45;2.13;;;2.03;;
15404;SDS011;7801;48.124;11.590;2023-02-15T06:35:10;2.27;;;1.93;;
15404;SDS011;7801;48.124;11.590;2023-02-15T06:37:36;1.90;;;1.80;;
15404;SDS011;7801;48.124;11.590;2023-02-15T06:40:02;3.30;;;3.17;;
15404;SDS011;7801;48.124;11.590;2023-02-15T06:42:29;1.77;;;1.77;;
15404;SDS011;7801;48.124;11.590;2023-02-15T06:44:54;2.27;;;2.17;;
15404;SDS011;7801;48.124;11.590;2023-02-15T06:47:19;1.47;;;1.47;;
15404;SDS011;7801;48.124;11.590;2023-02-15T06:49:45;3.50;;;3.30;;
15404;SDS011;7801;48.124;11.590;2023-02-15T06:52:10;2.70;;;2.50;;
15404;SDS011;7801;48.124;11.590;2023-02-15T06:54:35;1.60;;;1.60;;
15404;SDS011;7801;48.124;11.590;2023-02-15T06:57:01;2.57;;;2.47;;
15404;SDS011;7801;48.124;11.590;2023-02-15T06:59:26;1.97;;;1.90;;
15404;SDS011;7801;48.124;11.590;2023-02-15T07:01:51;1.97;;;1.87;;
15404;SDS011;7801;48.124;11.590;2023-02-15T07:04:17;2.23;;;2.13;;
15404;SDS011;7801;48.124;11.590;2023-02-15T07:06:42;2.77;;;2.57;;
15404;SDS011;7801;48.124;11.590;2023-02-15T07:09:08;2.37;;;2.27;;
15404;SDS011;7801;48.124;11.590;2023-02-15T07:11:33;2.80;;;2.60;;
15404;SDS011;7801;48.124;11.590;2023-02-15T07:14:17;2.00;;;1.90;;
15404;SDS011;7801;48.124;11.590;2023-02-15T07:16:43;2.23;;;2.13;;
15404;SDS011;7801;48.124;11.590;2023-02-15T07:19:08;2.23;;;2.13;;
15404;SDS011;7801;48.124;11.590;2023-02-15T07:21:34;2.60;;;2.03;;
15404;SDS011;7801;48.124;11.590;2023-02-15T07:24:00;2.85;;;2.65;;
15404;SDS011;7801;48.124;11.590;2023-02-15T07:26:25;1.90;;;1.77;;
15404;SDS011;7801;48.124;11.590;2023-02-15T07:28:51;3.43;;;2.10;;
15404;SDS011;7801;48.124;11.590;2023-02-15T07:31:16;3.10;;;2.90;;
15404;SDS011;7801;48.124;11.590;2023-02-15T07:33:42;2.83;;;2.73;;
15404;SDS011;7801;48.124;11.590;2023-02-15T07:36:08;2.67;;;2.57;;
15404;SDS011;7801;48.124;11.590;2023-02-15T07:38:36;2.73;;;2.53;;
15404;SDS011;7801;48.124;11.590;2023-02-15T07:41:05;2.70;;;2.47;;
15404;SDS011;7801;48.124;11.590;2023-02-15T07:43:33;2.20;;;2.10;;
15404;SDS011;7801;48.124;11.590;2023-02-15T07:46:00;2.40;;;2.30;;
15404;SDS011;7801;48.124;11.590;2023-02-15T07:48:30;2.37;;;2.27;;
15404;SDS011;7801;48.124;11.590;2023-02-15T07:51:03;3.30;;;3.03;;
15404;SDS011;7801;48.124;11.590;2023-02-15T07:53:30;2.37;;;2.27;;
15404;SDS011;7801;48.124;11.590;2023-02-15T07:55:59;3.17;;;2.97;;
15404;SDS011;7801;48.124;11.590;2023-02-15T07:58:25;6.97;;;3.37;;
15404;SDS011;7801;48.124;11.590;2023-02-15T08:01:10;1.50;;;1.50;;
15404;SDS011;7801;48.124;11.590;2023-02-15T08:03:36;2.47;;;2.37;;
15404;SDS011;7801;48.124;11.590;2023-02-15T08:06:01;3.50;;;2.77;;
15404;SDS011;7801;48.124;11.590;2023-02-15T08:08:27;2.50;;;2.30;;
15404;SDS011;7801;48.124;11.590;2023-02-15T08:10:59;3.43;;;3.23;;
15404;SDS011;7801;48.124;11.590;2023-02-15T08:14:00;3.23;;;3.03;;
15404;SDS011;7801;48.124;11.590;2023-02-15T08:19:18;2.70;;;2.57;;
15404;SDS011;7801;48.124;11.590;2023-02-15T08:21:49;3.00;;;2.80;;
15404;SDS011;7801;48.124;11.590;2023-02-15T08:24:17;2.70;;;2.60;;
15404;SDS011;7801;48.124;11.590;2023-02-15T08:26:44;4.10;;;2.80;;
15404;SDS011;7801;48.124;11.590;2023-02-15T08:29:12;3.10;;;2.53;;
15404;SDS011;7801;48.124;11.590;2023-02-15T08:31:37;2.90;;;2.70;;
15404;SDS011;7801;48.124;11.590;2023-02-15T08:34:03;2.73;;;2.63;;
15404;SDS011;7801;48.124;11.590;2023-02-15T08:36:30;2.97;;;2.77;;
15404;SDS011;7801;48.124;11.590;2023-02-15T08:39:00;3.63;;;3.30;;
15404;SDS011;7801;48.124;11.590;2023-02-15T08:41:28;2.70;;;2.60;;
15404;SDS011;7801;48.124;11.590;2023-02-15T08:43:59;3.30;;;3.03;;
15404;SDS011;7801;48.124;11.590;2023-02-15T08:46:27;2.93;;;2.70;;
15404;SDS011;7801;48.124;11.590;2023-02-15T08:48:54;2.40;;;2.30;;
15404;SDS011;7801;48.124;11.590;2023-02-15T08:51:22;2.57;;;2.37;;
15404;SDS011;7801;48.124;11.590;2023-02-15T08:53:50;2.63;;;2.53;;
15404;SDS011;7801;48.124;11.590;2023-02-15T08:56:18;2.17;;;2.00;;
15404;SDS011;7801;48.124;11.590;2023-02-15T08:58:45;2.20;;;2.10;;
15404;SDS011;7801;48.124;11.590;2023-02-15T09:01:12;3.03;;;2.87;;
15404;SDS011;7801;48.124;11.590;2023-02-15T09:03:48;2.70;;;2.60;;
15404;SDS011;7801;48.124;11.590;2023-02-15T09:06:17;2.67;;;2.53;;
15404;SDS011;7801;48.124;11.590;2023-02-15T09:08:43;2.23;;;2.13;;
15404;SDS011;7801;48.124;11.590;2023-02-15T09:11:09;7.83;;;2.90;;
15404;SDS011;7801;48.124;11.590;2023-02-15T09:13:35;2.27;;;2.07;;
15404;SDS011;7801;48.124;11.590;2023-02-15T09:16:01;1.60;;;1.57;;
15404;SDS011;7801;48.124;11.590;2023-02-15T09:18:29;3.87;;;3.67;;
15404;SDS011;7801;48.124;11.590;2023-02-15T09:20:56;3.60;;;3.40;;
15404;SDS011;7801;48.124;11.590;2023-02-15T09:23:22;2.47;;;2.37;;
15404;SDS011;7801;48.124;11.590;2023-02-15T09:25:47;3.43;;;1.93;;
15404;SDS011;7801;48.124;11.590;2023-02-15T09:28:12;3.37;;;3.20;;
15404;SDS011;7801;48.124;11.590;2023-02-15T09:30:38;2.37;;;2.27;;
15404;SDS011;7801;48.124;11.590;2023-02-15T09:33:03;3.43;;;3.13;;
15404;SDS011;7801;48.124;11.590;2023-02-15T09:35:28;1.90;;;1.90;;
15404;SDS011;7801;48.124;11.590;2023-02-15T09:37:54;2.13;;;2.03;;
15404;SDS011;7801;48.124;11.590;2023-02-15T09:40:19;5.80;;;3.17;;
15404;SDS011;7801;48.124;11.590;2023-02-15T09:48:38;2.80;;;2.60;;
15404;SDS011;7801;48.124;11.590;2023-02-15T09:54:17;3.17;;;2.97;;
15404;SDS011;7801;48.124;11.590;2023-02-15T10:02:53;5.47;;;3.20;;
15404;SDS011;7801;48.124;11.590;2023-02-15T10:05:54;2.73;;;2.50;;
15404;SDS011;7801;48.124;11.590;2023-02-15T10:08:40;3.53;;;3.33;;
15404;SDS011;7801;48.124;11.590;2023-02-15T10:11:36;2.43;;;2.33;;
15404;SDS011;7801;48.124;11.590;2023-02-15T10:14:33;2.00;;;1.90;;
15404;SDS011;7801;48.124;11.590;2023-02-15T10:22:18;3.13;;;2.83;;
15404;SDS011;7801;48.124;11.590;2023-02-15T10:27:46;2.27;;;2.17;;
15404;SDS011;7801;48.124;11.590;2023-02-15T10:38:53;2.67;;;2.57;;
15404;SDS011;7801;48.124;11.590;2023-02-15T10:50:20;2.13;;;2.03;;
15404;SDS011;7801;48.124;11.590;2023-02-15T10:52:59;3.33;;;3.13;;
15404;SDS011;7801;48.124;11.590;2023-02-15T10:55:55;3.43;;;3.20;;
15404;SDS011;7801;48.124;11.590;2023-02-15T10:58:29;4.50;;;4.07;;
15404;SDS011;7801;48.124;11.590;2023-02-15T11:03:33;3.53;;;3.23;;
15404;SDS011;7801;48.124;11.590;2023-02-15T11:06:12;1.87;;;1.87;;
15404;SDS011;7801;48.124;11.590;2023-02-15T11:08:45;3.10;;;2.90;;
15404;SDS011;7801;48.124;11.590;2023-02-15T11:11:22;2.63;;;2.53;;
15404;SDS011;7801;48.124;11.590;2023-02-15T11:13:52;1.87;;;1.87;;
15404;SDS011;7801;48.124;11.590;2023-02-15T11:16:30;2.67;;;2.50;;
15404;SDS011;7801;48.124;11.590;2023-02-15T11:21:37;2.63;;;2.53;;
15404;SDS011;7801;48.124;11.590;2023-02-15T11:24:11;3.17;;;3.00;;
15404;SDS011;7801;48.124;11.590;2023-02-15T11:26:41;3.37;;;3.07;;
15404;SDS011;7801;48.124;11.590;2023-02-15T11:29:18;4.57;;;3.53;;
15404;SDS011;7801;48.124;11.590;2023-02-15T11:32:14;2.90;;;2.80;;
15404;SDS011;7801;48.124;11.590;2023-02-15T11:34:51;3.50;;;3.30;;
15404;SDS011;7801;48.124;11.590;2023-02-15T11:37:22;4.57;;;4.30;;
15404;SDS011;7801;48.124;11.590;2023-02-15T11:39:54;3.63;;;3.43;;
15404;SDS011;7801;48.124;11.590;2023-02-15T11:42:20;5.10;;;4.77;;
15404;SDS011;7801;48.124;11.590;2023-02-15T11:47:29;5.57;;;4.93;;
15404;SDS011;7801;48.124;11.590;2023-02-15T11:49:54;5.37;;;4.27;;
15404;SDS011;7801;48.124;11.590;2023-02-15T11:52:20;5.07;;;4.57;;
15404;SDS011;7801;48.124;11.590;2023-02-15T11:54:46;3.83;;;3.53;;
15404;SDS011;7801;48.124;11.590;2023-02-15T11:57:19;3.97;;;3.70;;
15404;SDS011;7801;48.124;11.590;2023-02-15T12:00:02;3.63;;;3.40;;
15404;SDS011;7801;48.124;11.590;2023-02-15T12:02:35;3.83;;;3.63;;
15404;SDS011;7801;48.124;11.590;2023-02-15T12:05:03;2.50;;;2.40;;
15404;SDS011;7801;48.124;11.590;2023-02-15T12:07:41;3.20;;;3.10;;
15404;SDS011;7801;48.124;11.590;2023-02-15T12:10:25;3.80;;;3.60;;
15404;SDS011;7801;48.124;11.590;2023-02-15T12:15:47;2.73;;;2.63;;
15404;SDS011;7801;48.124;11.590;2023-02-15T12:18:19;3.43;;;3.23;;
15404;SDS011;7801;48.124;11.590;2023-02-15T12:20:49;3.17;;;2.97;;
15404;SDS011;7801;48.124;11.590;2023-02-15T12:23:15;3.60;;;3.40;;
15404;SDS011;7801;48.124;11.590;2023-02-15T12:25:43;3.93;;;3.63;;
15404;SDS011;7801;48.124;11.590;2023-02-15T12:28:32;4.27;;;3.97;;
15404;SDS011;7801;48.124;11.590;2023-02-15T12:31:02;3.30;;;3.20;;
15404;SDS011;7801;48.124;11.590;2023-02-15T12:33:34;3.17;;;2.93;;
15404;SDS011;7801;48.124;11.590;2023-02-15T12:41:37;3.47;;;3.27;;
15404;SDS011;7801;48.124;11.590;2023-02-15T12:44:15;6.90;;;4.40;;
15404;SDS011;7801;48.124;11.590;2023-02-15T12:47:05;2.87;;;2.77;;
15404;SDS011;7801;48.124;11.590;2023-02-15T12:49:44;3.30;;;3.20;;
15404;SDS011;7801;48.124;11.590;2023-02-15T12:52:28;3.77;;;3.57;;
15404;SDS011;7801;48.124;11.590;2023-02-15T12:54:53;3.17;;;2.90;;
15404;SDS011;7801;48.124;11.590;2023-02-15T12:57:23;3.47;;;3.27;;
15404;SDS011;7801;48.124;11.590;2023-02-15T13:00:00;3.43;;;3.13;;
15404;SDS011;7801;48.124;11.590;2023-02-15T13:07:34;2.07;;;1.97;;
15404;SDS011;7801;48.124;11.590;2023-02-15T13:10:00;3.60;;;3.40;;
15404;SDS011;7801;48.124;11.590;2023-02-15T13:12:27;3.50;;;2.97;;
15404;SDS011;7801;48.124;11.590;2023-02-15T13:14:58;2.13;;;2.03;;
15404;SDS011;7801;48.124;11.590;2023-02-15T13:17:27;2.73;;;2.63;;
15404;SDS011;7801;48.124;11.590;2023-02-15T13:19:57;3.00;;;2.67;;
15404;SDS011;7801;48.124;11.590;2023-02-15T13:22:36;2.00;;;1.90;;
15404;SDS011;7801;48.124;11.590;2023-02-15T13:25:22;3.70;;;3.00;;
15404;SDS011;7801;48.124;11.590;2023-02-15T13:27:57;4.03;;;3.77;;
15404;SDS011;7801;48.124;11.590;2023-02-15T13:30:28;8.03;;;3.37;;
15404;SDS011;7801;48.124;11.590;2023-02-15T13:33:02;2.77;;;2.67;;
15404;SDS011;7801;48.124;11.590;2023-02-15T13:35:34;16.97;;;3.63;;
15404;SDS011;7801;48.124;11.590;2023-02-15T13:38:09;4.17;;;3.87;;
15404;SDS011;7801;48.124;11.590;2023-02-15T13:40:53;3.60;;;3.33;;
15404;SDS011;7801;48.124;11.590;2023-02-15T13:43:46;2.43;;;2.33;;
15404;SDS011;7801;48.124;11.590;2023-02-15T13:52:05;10.87;;;3.57;;
15404;SDS011;7801;48.124;11.590;2023-02-15T13:55:36;2.87;;;2.77;;
15404;SDS011;7801;48.124;11.590;2023-02-15T14:14:39;3.63;;;3.43;;
15404;SDS011;7801;48.124;11.590;2023-02-15T14:23:06;4.50;;;4.10;;
15404;SDS011;7801;48.124;11.590;2023-02-15T14:25:50;2.77;;;2.67;;
15404;SDS011;7801;48.124;11.590;2023-02-15T14:28:23;4.53;;;4.23;;
15404;SDS011;7801;48.124;11.590;2023-02-15T14:30:56;4.47;;;4.20;;
15404;SDS011;7801;48.124;11.590;2023-02-15T14:33:36;2.60;;;2.50;;
15404;SDS011;7801;48.124;11.590;2023-02-15T14:36:06;7.37;;;3.47;;
15404;SDS011;7801;48.124;11.590;2023-02-15T14:39:16;4.53;;;4.17;;
15404;SDS011;7801;48.124;11.590;2023-02-15T14:41:35;4.77;;;4.47;;
15404;SDS011;7801;48.124;11.590;2023-02-15T14:46:46;3.30;;;3.10;;
15404;SDS011;7801;48.124;11.590;2023-02-15T14:49:19;3.20;;;3.10;;
15404;SDS011;7801;48.124;11.590;2023-02-15T14:56:46;3.43;;;3.23;;
15404;SDS011;7801;48.124;11.590;2023-02-15T15:07:28;3.10;;;2.90;;
15404;SDS011;7801;48.124;11.590;2023-02-15T15:12:43;3.83;;;3.63;;
15404;SDS011;7801;48.124;11.590;2023-02-15T15:18:10;3.57;;;3.30;;
15404;SDS011;7801;48.124;11.590;2023-02-15T15:20:56;3.37;;;3.17;;
15404;SDS011;7801;48.124;11.590;2023-02-15T15:25:47;3.30;;;3.20;;
15404;SDS011;7801;48.124;11.590;2023-02-15T15:33:48;5.27;;;4.53;;
15404;SDS011;7801;48.124;11.590;2023-02-15T15:42:37;4.37;;;4.03;;
15404;SDS011;7801;48.124;11.590;2023-02-15T15:50:28;4.17;;;3.87;;
15404;SDS011;7801;48.124;11.590;2023-02-15T15:52:55;4.20;;;3.90;;
15404;SDS011;7801;48.124;11.590;2023-02-15T15:55:28;4.60;;;4.20;;
15404;SDS011;7801;48.124;11.590;2023-02-15T15:57:57;3.27;;;3.07;;
15404;SDS011;7801;48.124;11.590;2023-02-15T16:00:32;4.17;;;3.97;;
15404;SDS011;7801;48.124;11.590;2023-02-15T16:02:58;3.93;;;3.73;;
15404;SDS011;7801;48.124;11.590;2023-02-15T16:05:24;3.80;;;3.60;;
15404;SDS011;7801;48.124;11.590;2023-02-15T16:07:49;4.37;;;4.13;;
15404;SDS011;7801;48.124;11.590;2023-02-15T16:10:25;4.30;;;4.00;;
15404;SDS011;7801;48.124;11.590;2023-02-15T16:12:52;5.00;;;4.60;;
15404;SDS011;7801;48.124;11.590;2023-02-15T16:15:29;4.97;;;4.57;;
15404;SDS011;7801;48.124;11.590;2023-02-15T16:17:59;3.33;;;3.13;;
15404;SDS011;7801;48.124;11.590;2023-02-15T16:20:30;5.70;;;5.00;;
15404;SDS011;7801;48.124;11.590;2023-02-15T16:23:05;4.90;;;4.50;;
15404;SDS011;7801;48.124;11.590;2023-02-15T16:25:45;3.43;;;3.33;;
15404;SDS011;7801;48.124;11.590;2023-02-15T16:28:19;3.60;;;3.40;;
15404;SDS011;7801;48.124;11.590;2023-02-15T16:30:45;3.30;;;3.00;;
15404;SDS011;7801;48.124;11.590;2023-02-15T16:33:12;3.73;;;3.53;;
15404;SDS011;7801;48.124;11.590;2023-02-15T16:36:01;4.13;;;3.77;;
15404;SDS011;7801;48.124;11.590;2023-02-15T16:41:17;3.17;;;3.00;;
15404;SDS011;7801;48.124;11.590;2023-02-15T16:43:50;3.47;;;3.23;;
15404;SDS011;7801;48.124;11.590;2023-02-15T16:46:24;2.50;;;2.40;;
15404;SDS011;7801;48.124;11.590;2023-02-15T16:48:53;4.80;;;4.47;;
15404;SDS011;7801;48.124;11.590;2023-02-15T16:51:26;4.60;;;4.40;;
15404;SDS011;7801;48.124;11.590;2023-02-15T16:53:54;4.37;;;3.97;;
15404;SDS011;7801;48.124;11.590;2023-02-15T16:56:22;4.20;;;3.90;;
15404;SDS011;7801;48.124;11.590;2023-02-15T16:58:49;6.33;;;4.93;;
15404;SDS011;7801;48.124;11.590;2023-02-15T17:01:17;3.90;;;3.57;;
15404;SDS011;7801;48.124;11.590;2023-02-15T17:03:48;4.37;;;4.10;;
15404;SDS011;7801;48.124;11.590;2023-02-15T17:06:19;5.60;;;4.93;;
15404;SDS011;7801;48.124;11.590;2023-02-15T17:08:48;3.63;;;3.33;;
15404;SDS011;7801;48.124;11.590;2023-02-15T17:11:14;4.43;;;4.13;;
15404;SDS011;7801;48.124;11.590;2023-02-15T17:16:50;4.73;;;4.40;;
15404;SDS011;7801;48.124;11.590;2023-02-15T17:21:52;3.63;;;3.33;;
15404;SDS011;7801;48.124;11.590;2023-02-15T17:24:42;4.80;;;4.60;;
15404;SDS011;7801;48.124;11.590;2023-02-15T17:27:20;3.60;;;3.40;;
15404;SDS011;7801;48.124;11.590;2023-02-15T17:29:50;3.67;;;3.47;;
15404;SDS011;7801;48.124;11.590;2023-02-15T17:32:21;4.37;;;4.07;;
15404;SDS011;7801;48.124;11.590;2023-02-15T17:39:55;4.53;;;4.23;;
15404;SDS011;7801;48.124;11.590;2023-02-15T17:42:21;4.37;;;4.07;;
15404;SDS011;7801;48.124;11.590;2023-02-15T17:44:48;4.63;;;4.33;;
15404;SDS011;7801;48.124;11.590;2023-02-15T17:47:17;3.87;;;3.60;;
15404;SDS011;7801;48.124;11.590;2023-02-15T17:49:45;3.80;;;3.60;;
15404;SDS011;7801;48.124;11.590;2023-02-15T17:52:13;4.47;;;4.07;;
15404;SDS011;7801;48.124;11.590;2023-02-15T17:54:40;3.40;;;3.20;;
15404;SDS011;7801;48.124;11.590;2023-02-15T17:57:25;4.07;;;3.87;;
15404;SDS011;7801;48.124;11.590;2023-02-15T17:59:50;4.73;;;4.37;;
15404;SDS011;7801;48.124;11.590;2023-02-15T18:02:35;3.90;;;3.70;;
15404;SDS011;7801;48.124;11.590;2023-02-15T18:05:19;3.57;;;3.03;;
15404;SDS011;7801;48.124;11.590;2023-02-15T18:08:07;3.67;;;3.37;;